Terminal Aerodrome Forecast
Issued by NWS Memphis, TN

Home | Current Version | Previous Version | Text Only | Print | Product List | Glossary On
Versions: 1 2 3 4 5 6 7 8 9 10 11 12 13
547
FTUS44 KMEG 280941 AAA
TAFJBR
TAF AMD
KJBR 280941Z 2810/2906 06004KT P6SM VCSH BKN080 BKN120
     FM281300 13008KT P6SM OVC080
     FM281600 16010KT P6SM OVC015
     FM281900 18007KT P6SM OVC007
     FM290000 16008KT P6SM OVC015
     FM290400 16011KT P6SM VCTS OVC025CB=

USA.gov is the U.S. government's official web portal to all federal, state and local government web resources and services.